AirNav   TITAN Aviation Fuels
 
 645 users online  

E95 Benson Municipal Airport
Benson, Arizona, USA

GOING TO BENSON?


FAA INFORMATION EFFECTIVE 11 AUGUST 2022

Location

FAA Identifier: E95
Lat/Long: 31-59-58.0000N 110-21-28.7000W
31-59.966667N 110-21.478333W
31.9994444,-110.3579722
(estimated)
Elevation: 3830.9 ft. / 1167.7 m (surveyed)
Variation: 12E (1995)
From city: 3 miles NW of BENSON, AZ
Time zone: UTC -7 (year round; does not observe DST)
Zip code: 85602

Airport Operations

Airport use: Open to the public
Activation date: 11/1999
Control tower: no
ARTCC: ALBUQUERQUE CENTER
FSS: PRESCOTT FLIGHT SERVICE STATION
NOTAMs facility: PRC (NOTAM-D service available)
Attendance: CONTINUOUS
Wind indicator: lighted
Segmented circle: yes
Lights: ACTVT PAPI RWY 10 & 28; MIRL RWY 10/28 - CTAF.
Beacon: white-green (lighted land airport)
Operates sunset to sunrise.

Airport Communications

CTAF/UNICOM: 122.8
WX AWOS-3: 118.475 (520-265-5232)

Nearby radio navigation aids

VOR radial/distance  VOR name  Freq  Var
FHUr347/24.6LIBBY VOR/DME113.6013E
TUSr089/28.9TUCSON VORTAC116.0012E

Airport Services

Fuel available: 100LL JET-A
Parking: tiedowns
Airframe service: MAJOR
Powerplant service: MAJOR

Runway Information

Runway 10/28

Dimensions: 4002 x 75 ft. / 1220 x 23 m
Surface: asphalt, in good condition
Weight bearing capacity: 
Single wheel: 12.5
Runway edge lights: medium intensity
RUNWAY 10  RUNWAY 28
Latitude: 32-00.027858N31-59.906303N
Longitude: 110-21.858230W110-21.097155W
Elevation: 3830.9 ft.3803.8 ft.
Traffic pattern: leftleft
Runway heading: 089 magnetic, 101 true269 magnetic, 281 true
Markings: basic, in good conditionbasic, in good condition
Visual slope indicator: 2-light PAPI on left (3.00 degrees glide path)2-light PAPI on left (3.00 degrees glide path)
Runway end identifier lights: yesyes
Touchdown point: yes, no lightsyes, no lights
Obstructions: 2 ft. brush, 220 ft. from runway, 84 ft. left of centerline, 10:1 slope to clear
RWY 10 3-6 FT BRUSH 125-200 FT FM THLD, 100-125 FT RIGHT OF CNTRLN.
none
RWY 28 +4-6 FT BRUSH 0-50 FT FM THLD, 120-125 FT RIGHT OF CNTRLN; +4 FT BRUSH 130 FT FM THLD, 30 FT LEFT OF CNTRLN.

Airport Ownership and Management from official FAA records

Ownership: Publicly-owned
Owner: CITY OF BENSON
P.O BOX 2223
BENSON, AZ 85602
Phone 520-586-2245
Manager: BRAD HAMILTON
P.O BOX 2223
BENSON, AZ 85602
Phone 520-586-2245

Airport Operational Statistics

Aircraft based on the field: 18
Single engine airplanes: 15
Helicopters: 1
Ultralights: 2
    
Aircraft operations: avg 67/day *
61% transient general aviation
37% local general aviation
2% military
* for 12-month period ending 29 March 2020

Additional Remarks

RY 10 HAS FOUR 15 FT DITCHES BOTH SIDES OF RY ENDS & WEST HALF OF RY WITH HEADWALLS 130 FT SOUTH OF CENTERLINE.
RY 10, 110 FT TWY EXTENDS FM RY THRESHOLD TO WEST.
LIVESTOCK ON OR INVOF AIRPORT.
ERRATIC WIND CURRENTS .5 NM FM THRESHOLD WHEN WINDS ARE IN EXCESS OF 10 KTS.
FOR CD CTC TUCSON APCH AT 520-829-6121.

Instrument Procedures

There are no published instrument procedures at E95.

Some nearby airports with instrument procedures:

KFHU - Sierra Vista Municipal Airport-Libby Army Airfield (25 nm S)
P33 - Cochise County Airport (28 nm NE)
KDMA - Davis Monthan Air Force Base (29 nm W)
KTUS - Tucson International Airport (30 nm W)
KRYN - Ryan Field Airport (42 nm W)
 
Loc | Ops | Rwys | IFR | FBO | Links
Com | Nav | Svcs | Stats | Notes
Area around E95 (Benson Municipal Airport)
 
Road maps at: MapQuest Bing Google
 
Aerial photo
WARNING: Photo may not be current or correct
Aerial photo of E95 (Benson Municipal Airport)
Photo by Bryan Anderson
Photo taken 11-Nov-2019
looking north-northwest.

Do you have a better or more recent aerial photo of Benson Municipal Airport that you would like to share? If so, please send us your photo.

 
Sectional chart

 
Airport distance calculator
Flying to Benson Municipal Airport? Find the distance to fly.

From to E95

Sunrise and sunset
Times for 16-Aug-2022
 Local
(UTC-7)
 Zulu
(UTC)
Morning civil twilight05:2212:22
Sunrise05:4812:48
Sunset19:0402:04
Evening civil twilight19:2902:29

Current date and time
Zulu (UTC)  17-Aug-2022 06:52:45
Local (UTC-7)  16-Aug-2022 23:52:45
 
METAR
KALK 
24nm S 
170556Z AUTO 26008KT 10SM FEW080 BKN120 20/18 A3012 RMK AO2 SLP104 60002 T02000178 10261 20200 51010
KFHU 
24nm S 
170614Z AUTO 10012G24KT 9SM VCTS -RA FEW014 SCT031 BKN055 20/17 A3016 RMK AO2 WSHFT 06 RAB09 SLP150 $
KDMA 
28nm W 
170558Z AUTO 14008KT 10SM CLR 25/17 A2994 RMK AO2 SLP092 T02540173 10363 20250 51019 $
KTUS 
31nm W 
170453Z 15010KT 10SM CLR 26/17 A2995 RMK AO2 LTG DSNT E AND SE SLP093 T02560172
KRYN 
42nm W 
170245Z 00000KT 10SM FEW090 31/16 A2986 RMK LAST
KOLS 
43nm SW 
170454Z AUTO 05007KT 10SM SCT120 21/18 A3005 RMK AO2 SLP108 T02110178 $
TAF
KFHU 
24nm S 
170600Z 1706/1812 05012KT 9999 VCTS BKN050CB OVC110 QNH3009 TEMPO 1706/1708 VRB25G35KT 6000 TSRAGR BECMG 1708/1709 04010KT 9999 NSW SCT050 BKN110 QNH3010 BECMG 1709/1710 29009KT 9999SCT050 QNH3009 BECMG 1722/1723 06012KT 9999 VCTS BKN070CB QNH3008 TEMPO 1801/1803 VRB20G30KT 8000 -TSRA BECMG 1803/1804 28012KT 9999 NSW SCT100 QNH3013 TX27/1719Z TN19/1712Z
KDMA 
28nm W 
170608Z 1706/1812 12007KT 9999 SCT060 QNH2994INS BECMG 1715/1716 VRB06KT 9999 SCT065 BKN080 QNH3002INS BECMG 1718/1719 30009KT 9999 SCT070 QNH2995INS BECMG 1722/1723 VRB10G20KT 9999 VCTS SCT075CB QNH2993INS TEMPO 1800/1802 VRB15G26KT 9000 -TSRA BKN070CB BECMG 1807/1808 12009KT 9999 NSW SCT070 QNH2994INS TX34/1723Z TN24/1710Z
NOTAMs
Click for the latest NOTAMs
NOTAMs are issued by the DoD/FAA and will open in a separate window not controlled by AirNav.

 

 
 

FBO, Fuel Providers, and Aircraft Ground Support

  
 Business Name 
 
 Contact 
 
 Services / Description 
 
Fuel Prices
 
Comments
  
 Southwestern Aviation, LLC
UNICOM 122.80
520-586-3262
[web site]
[email]
Aviation fuel, Aircraft parking (ramp or tiedown), Hangar leasing / sales, Flight training, Aircraft rental, Aviation accessories, Aircraft sales / leasing / brokerage, ...

More info about Southwestern Aviation, LLC
Avfuel
100LL Jet A
FS $6.75 $7.25 
 Updated 20-Jul-2022
 
   41 read write
FS=Full service
Update Fuel Prices
 

Aviation Businesses, Services, and Facilities

  
 Business Name 
 
 Contact 
 
 Services / Description 
 
Distance
 
Comments
  
 Plane Folks, LLC
520-488-3805
520-488-1042
[web site]
[email]
Hangar leasing / sales, Flight training, Aircraft rental, Aerial tours / aerial sightseeing

More info about Plane Folks, LLC
on airport  
   1 read write
 

Would you like to see your business listed on this page?

 If your business provides an interesting product or service to pilots, flight crews, aircraft, or users of the Benson Municipal Airport, you should consider listing it here.  To start the listing process, click on the button below
 
Add a business
 

Other Pages about Benson Municipal Airport

www.cityofbenson.com/index.asp?SEC=2E62F3FA-ABAE-44FB-BA5E-396DC2443B23&Type=B_BASIC
 
Update a link
 
Copyright © AirNav, LLC. All rights reserved. Privacy Policy  Contact